Terminal Aerodrome Forecast
Issued by NWS St Louis, MO

Home | Current Version | Previous Version | Text Only | Print | Product List | Glossary Off
Versions: 1 2 3 4 5 6 7 8 9 10 11 12 13 14 15 16 17 18 19 20 21 22 23 24 25

000
FTUS43 KLSX 221700
TAFSTL
TAF
KSTL 221725Z 2218/2324 14010KT 3SM -RA BR OVC008
     FM230200 17011KT 4SM -RA BR OVC008
     FM230500 23010KT P6SM OVC015
     FM231200 23008KT P6SM SCT015 BKN025=

USA.gov is the U.S. government's official web portal to all federal, state and local government web resources and services.